createdAt,value
2022-08-08T00:01:08.606Z,99943.44
2022-08-08T00:04:05.576Z,99948.00
2022-08-08T00:06:46.700Z,99941.84
2022-08-08T00:09:52.378Z,99939.66
2022-08-08T00:12:26.135Z,99944.16
2022-08-08T00:15:06.818Z,99942.69
2022-08-08T00:17:58.479Z,99940.06
2022-08-08T00:20:41.922Z,99935.16
2022-08-08T00:23:18.488Z,99932.81
2022-08-08T00:25:52.859Z,99929.50
2022-08-08T00:28:34.179Z,99922.31
2022-08-08T00:32:21.178Z,99910.31
2022-08-08T00:34:27.408Z,99902.59
2022-08-08T00:37:03.516Z,99907.88
2022-08-08T00:41:12.843Z,99906.38
2022-08-08T00:43:19.712Z,99908.03
2022-08-08T00:46:17.258Z,99901.37
2022-08-08T00:49:22.377Z,99912.13
2022-08-08T00:51:53.319Z,99910.91
2022-08-08T00:54:43.575Z,99904.34
2022-08-08T00:57:35.925Z,99906.62
2022-08-08T01:00:14.448Z,99909.47
2022-08-08T01:03:58.499Z,99911.88
2022-08-08T01:06:11.873Z,99906.91
2022-08-08T01:09:36.117Z,99903.66
2022-08-08T01:12:11.391Z,99902.84
2022-08-08T01:15:17.264Z,99897.84
2022-08-08T01:18:50.486Z,99897.72
2022-08-08T01:21:11.064Z,99903.31
2022-08-08T01:24:13.425Z,99897.13
2022-08-08T01:26:53.390Z,99906.91
2022-08-08T01:29:35.158Z,99906.44
2022-08-08T01:32:31.783Z,99909.03
2022-08-08T01:35:38.358Z,99904.34
2022-08-08T01:38:29.668Z,99898.59
2022-08-08T01:41:15.878Z,99892.41
2022-08-08T01:44:03.608Z,99891.12
2022-08-08T01:46:47.716Z,99884.41
2022-08-08T01:49:45.203Z,99876.34
2022-08-08T01:52:33.437Z,99879.69
2022-08-08T01:56:28.354Z,99886.34
2022-08-08T01:58:38.678Z,99886.47
2022-08-08T02:02:00.017Z,99885.00
2022-08-08T02:04:56.911Z,99884.44
2022-08-08T02:07:41.747Z,99892.25
2022-08-08T02:10:44.732Z,99895.81
2022-08-08T02:13:53.903Z,99893.66
2022-08-08T02:16:35.744Z,99893.22
2022-08-08T02:19:41.854Z,99901.03
2022-08-08T02:22:32.377Z,99904.84
2022-08-08T02:25:20.963Z,99904.72
2022-08-08T02:28:04.042Z,99902.47
2022-08-08T02:30:50.047Z,99901.25
2022-08-08T02:34:00.522Z,99912.03
2022-08-08T02:36:58.995Z,99924.56
2022-08-08T02:39:42.043Z,99917.16
2022-08-08T02:44:34.756Z,99922.22
2022-08-08T02:45:58.807Z,99916.72
2022-08-08T02:49:01.104Z,99914.78
2022-08-08T02:52:11.398Z,99913.41
2022-08-08T02:55:21.451Z,99911.09
2022-08-08T02:58:08.525Z,99918.28
2022-08-08T03:01:08.643Z,99919.06
2022-08-08T03:05:01.008Z,99926.03
2022-08-08T03:06:36.335Z,99927.56
2022-08-08T03:09:22.745Z,99936.72
2022-08-08T03:12:36.583Z,99918.47
2022-08-08T03:15:58.111Z,99921.00
2022-08-08T03:18:52.171Z,99937.50
2022-08-08T03:21:40.806Z,99933.59
2022-08-08T03:24:08.571Z,99931.84
2022-08-08T03:26:42.764Z,99931.53
2022-08-08T03:29:17.102Z,99934.84
2022-08-08T03:32:08.590Z,99935.00
2022-08-08T03:34:40.076Z,99932.87
2022-08-08T03:37:59.019Z,99934.25
2022-08-08T03:40:04.541Z,99931.97
2022-08-08T03:42:32.767Z,99926.16
2022-08-08T03:45:02.164Z,99924.50
2022-08-08T03:48:02.722Z,99922.13
2022-08-08T03:50:32.040Z,99931.44
2022-08-08T03:53:13.465Z,99938.91
2022-08-08T03:55:56.660Z,99938.72
2022-08-08T03:58:35.761Z,99935.31
2022-08-08T04:01:24.503Z,99926.16
2022-08-08T04:03:58.675Z,99931.81
2022-08-08T04:06:29.559Z,99943.44
2022-08-08T04:09:10.832Z,99947.69
2022-08-08T04:11:58.061Z,99935.16
2022-08-08T04:14:35.373Z,99944.62
2022-08-08T04:17:04.922Z,99944.56
2022-08-08T04:19:43.545Z,99949.13
2022-08-08T04:22:11.098Z,99951.44
2022-08-08T04:24:41.440Z,99958.69
2022-08-08T04:27:19.440Z,99965.84
2022-08-08T04:30:00.982Z,99965.00
2022-08-08T04:32:47.805Z,99969.50
2022-08-08T04:35:15.946Z,99960.28
2022-08-08T04:37:43.657Z,99959.31
2022-08-08T04:40:13.219Z,99965.25
2022-08-08T04:42:46.629Z,99967.47
2022-08-08T04:45:26.377Z,99965.28
2022-08-08T04:47:57.172Z,99971.25
2022-08-08T04:50:29.151Z,99973.66
2022-08-08T04:53:13.693Z,99974.78
2022-08-08T04:55:56.069Z,99971.44
2022-08-08T04:58:25.340Z,99974.75
2022-08-08T05:00:53.777Z,99976.56
2022-08-08T05:04:11.047Z,99982.94
2022-08-08T05:06:12.982Z,99982.06
2022-08-08T05:08:51.904Z,99985.25
2022-08-08T05:11:23.761Z,99984.63
2022-08-08T05:13:58.008Z,99978.56
2022-08-08T05:16:51.430Z,99981.53
2022-08-08T05:20:10.851Z,99978.16
2022-08-08T05:22:07.633Z,99981.59
2022-08-08T05:24:37.353Z,99980.31
2022-08-08T05:27:05.937Z,99989.44
2022-08-08T05:29:35.544Z,99983.19
2022-08-08T05:32:07.640Z,100000.25
2022-08-08T05:34:41.365Z,100000.63
2022-08-08T05:37:17.013Z,99997.09
2022-08-08T05:39:52.817Z,99995.72
2022-08-08T05:42:30.931Z,99999.19
2022-08-08T05:45:25.713Z,99994.50
2022-08-08T05:48:00.597Z,99990.69
2022-08-08T05:50:36.803Z,99986.69
2022-08-08T05:53:23.122Z,99994.59
2022-08-08T05:56:10.475Z,99994.50
2022-08-08T05:58:56.829Z,99995.41
2022-08-08T06:01:50.615Z,99986.41
2022-08-08T06:04:23.496Z,99993.00
2022-08-08T06:07:00.554Z,99972.97
2022-08-08T06:10:00.618Z,99978.41
2022-08-08T06:12:29.654Z,99988.28
2022-08-08T06:15:06.461Z,99990.34
2022-08-08T06:17:51.333Z,100001.28
2022-08-08T06:20:27.350Z,100002.09
2022-08-08T06:22:56.358Z,99991.91
2022-08-08T06:25:33.260Z,99991.09
2022-08-08T06:28:18.886Z,100006.06
2022-08-08T06:30:48.472Z,100003.47
2022-08-08T06:33:37.319Z,99992.28
2022-08-08T06:36:10.117Z,99986.13
2022-08-08T06:38:41.072Z,99993.69
2022-08-08T06:41:13.391Z,99997.34
2022-08-08T06:43:47.683Z,99996.41
2022-08-08T06:46:26.211Z,100003.22
2022-08-08T06:48:58.603Z,100006.16
2022-08-08T06:51:46.660Z,100000.13
2022-08-08T06:54:15.706Z,100009.00
2022-08-08T06:56:51.216Z,100002.09
2022-08-08T06:59:19.583Z,100007.69
2022-08-08T07:02:26.963Z,100008.25
2022-08-08T07:05:00.846Z,100008.78
2022-08-08T07:07:37.003Z,100006.22
2022-08-08T07:10:08.740Z,100008.06
2022-08-08T07:12:43.318Z,99997.06
2022-08-08T07:15:32.261Z,99989.75
2022-08-08T07:18:36.999Z,99989.97
2022-08-08T07:21:04.785Z,99991.22
2022-08-08T07:24:01.426Z,99995.66
2022-08-08T07:26:35.229Z,100014.97
2022-08-08T07:29:07.990Z,100014.00
2022-08-08T07:31:40.695Z,100012.59
2022-08-08T07:34:10.477Z,100012.69
2022-08-08T07:36:50.241Z,100016.13
2022-08-08T07:39:29.428Z,100015.66
2022-08-08T07:42:04.384Z,100017.75
2022-08-08T07:44:40.382Z,100020.97
2022-08-08T07:47:10.049Z,100022.63
2022-08-08T07:49:40.081Z,100021.47
2022-08-08T07:52:13.093Z,100031.44
2022-08-08T07:55:09.347Z,100031.88
2022-08-08T07:58:15.474Z,100034.78
2022-08-08T08:00:59.992Z,100041.84
2022-08-08T08:03:43.473Z,100036.25
2022-08-08T08:06:14.206Z,100036.63
2022-08-08T08:08:50.198Z,100042.00
2022-08-08T08:11:23.291Z,100038.09
2022-08-08T08:14:08.256Z,100038.75
2022-08-08T08:16:41.142Z,100036.06
2022-08-08T08:19:12.839Z,100036.41
2022-08-08T08:21:57.261Z,100041.50
2022-08-08T08:24:32.397Z,100031.38
2022-08-08T08:27:03.614Z,100034.75
2022-08-08T08:29:32.502Z,100040.78
2022-08-08T08:32:03.236Z,100033.59
2022-08-08T08:34:34.040Z,100036.09
2022-08-08T08:37:07.639Z,100038.00
2022-08-08T08:39:39.106Z,100042.31
2022-08-08T08:42:35.117Z,100050.66
2022-08-08T08:45:21.239Z,100054.56
2022-08-08T08:47:54.298Z,100061.66
2022-08-08T08:50:33.976Z,100063.87
2022-08-08T08:53:28.016Z,100057.78
2022-08-08T08:56:01.286Z,100059.75
2022-08-08T08:58:37.986Z,100053.84
2022-08-08T09:01:10.212Z,100068.81
2022-08-08T09:03:47.834Z,100066.63
2022-08-08T09:06:33.457Z,100060.91
2022-08-08T09:09:07.175Z,100059.66
2022-08-08T09:11:47.823Z,100063.56
2022-08-08T09:14:26.104Z,100070.59
2022-08-08T09:16:55.444Z,100062.22
2022-08-08T09:22:02.791Z,100060.81
2022-08-08T09:22:11.491Z,100072.16
2022-08-08T09:24:40.151Z,100074.81
2022-08-08T09:27:20.451Z,100073.81
2022-08-08T09:30:09.825Z,100070.56
2022-08-08T09:33:11.884Z,100065.47
2022-08-08T09:35:37.386Z,100065.78
2022-08-08T09:38:09.403Z,100061.44
2022-08-08T09:40:53.925Z,100068.22
2022-08-08T09:44:04.732Z,100066.03
2022-08-08T09:46:25.400Z,100062.66
2022-08-08T09:49:18.054Z,100055.88
2022-08-08T09:52:07.467Z,100045.53
2022-08-08T09:54:44.713Z,100045.03
2022-08-08T09:57:19.016Z,100039.00
2022-08-08T10:00:14.719Z,100046.41
2022-08-08T10:02:42.009Z,100039.25
2022-08-08T10:05:25.420Z,100043.03
2022-08-08T10:07:59.852Z,100038.69
2022-08-08T10:10:36.805Z,100047.41
2022-08-08T10:13:30.029Z,100046.69
2022-08-08T10:16:05.210Z,100047.53
2022-08-08T10:18:35.060Z,100055.22
2022-08-08T10:21:23.215Z,100068.13
2022-08-08T10:23:57.907Z,100060.56
2022-08-08T10:26:57.115Z,100063.13
2022-08-08T10:30:00.366Z,100055.88
2022-08-08T10:32:37.321Z,100050.87
2022-08-08T10:35:20.545Z,100039.91
2022-08-08T10:38:05.819Z,100043.03
2022-08-08T10:40:38.050Z,100034.13
2022-08-08T10:43:07.152Z,100028.91
2022-08-08T10:45:55.745Z,100030.50
2022-08-08T10:48:38.719Z,100039.84
2022-08-08T10:51:26.590Z,100047.03
2022-08-08T10:54:01.832Z,100059.91
2022-08-08T10:56:34.510Z,100066.66
2022-08-08T10:59:14.161Z,100059.72
2022-08-08T11:01:46.740Z,100066.91
2022-08-08T11:04:38.472Z,100072.81
2022-08-08T11:07:07.297Z,100056.12
2022-08-08T11:09:35.427Z,100054.22
2022-08-08T11:12:12.598Z,100065.16
2022-08-08T11:14:52.643Z,100058.88
2022-08-08T11:17:57.815Z,100062.22
2022-08-08T11:20:13.397Z,100057.28
2022-08-08T11:22:41.494Z,100068.31
2022-08-08T11:25:14.168Z,100051.13
2022-08-08T11:27:44.516Z,100054.53
2022-08-08T11:30:19.884Z,100047.31
2022-08-08T11:32:48.671Z,100057.34
2022-08-08T11:35:27.460Z,100047.94
2022-08-08T11:38:43.485Z,100047.16
2022-08-08T11:40:54.444Z,100045.72
2022-08-08T11:43:25.991Z,100052.47
2022-08-08T11:46:13.831Z,100066.81
2022-08-08T11:48:47.159Z,100064.91
2022-08-08T11:51:38.151Z,100076.69
2022-08-08T11:54:26.875Z,100065.91
2022-08-08T11:56:56.525Z,100060.00
2022-08-08T11:59:58.401Z,100068.28
2022-08-08T12:02:40.032Z,100066.19
2022-08-08T12:05:12.252Z,100076.12
2022-08-08T12:07:54.336Z,100079.84
2022-08-08T12:10:27.526Z,100071.91
2022-08-08T12:13:09.505Z,100074.94
2022-08-08T12:15:46.803Z,100076.97
2022-08-08T12:18:21.434Z,100077.13
2022-08-08T12:20:55.021Z,100065.59
2022-08-08T12:23:44.060Z,100069.28
2022-08-08T12:26:28.164Z,100070.22
2022-08-08T12:29:21.252Z,100064.19
2022-08-08T12:32:17.009Z,100068.81
2022-08-08T12:35:01.280Z,100068.91
2022-08-08T12:37:43.329Z,100066.41
2022-08-08T12:40:22.666Z,100071.78
2022-08-08T12:42:52.959Z,100072.38
2022-08-08T12:45:57.789Z,100087.09
2022-08-08T12:48:37.444Z,100089.78
2022-08-08T12:51:07.881Z,100093.09
2022-08-08T12:53:58.626Z,100094.19
2022-08-08T12:56:53.107Z,100091.22
2022-08-08T12:59:27.344Z,100088.03
2022-08-08T13:02:28.131Z,100097.63
2022-08-08T13:04:58.181Z,100095.03
2022-08-08T13:08:04.126Z,100097.25
2022-08-08T13:10:32.831Z,100089.66
2022-08-08T13:13:06.183Z,100087.66
2022-08-08T13:15:36.320Z,100081.72
2022-08-08T13:18:10.808Z,100087.66
2022-08-08T13:20:45.782Z,100095.16
2022-08-08T13:23:36.625Z,100084.59
2022-08-08T13:26:13.297Z,100079.25
2022-08-08T13:28:45.844Z,100087.44
2022-08-08T13:31:17.197Z,100085.41
2022-08-08T13:33:47.257Z,100078.69
2022-08-08T13:36:26.290Z,100070.22
2022-08-08T13:38:54.793Z,100070.97
2022-08-08T13:41:39.366Z,100065.00
2022-08-08T13:44:11.194Z,100065.59
2022-08-08T13:46:39.876Z,100068.19
2022-08-08T13:50:39.201Z,100060.78
2022-08-08T13:52:06.869Z,100057.22
2022-08-08T13:54:44.245Z,100062.38
2022-08-08T13:57:17.135Z,100061.44
2022-08-08T13:59:48.101Z,100046.66
2022-08-08T14:02:31.109Z,100048.44
2022-08-08T14:05:22.038Z,100042.59
2022-08-08T14:07:53.010Z,100042.62
2022-08-08T14:10:33.302Z,100036.13
2022-08-08T14:13:09.875Z,100041.03
2022-08-08T14:15:50.331Z,100042.84
2022-08-08T14:18:36.531Z,100040.37
2022-08-08T14:21:15.315Z,100042.97
2022-08-08T14:24:07.820Z,100048.25
2022-08-08T14:26:42.354Z,100051.63
2022-08-08T14:29:30.636Z,100047.75
2022-08-08T14:32:10.002Z,100046.38
2022-08-08T14:34:42.865Z,100046.53
2022-08-08T14:37:12.831Z,100037.09
2022-08-08T14:39:48.584Z,100042.78
2022-08-08T14:42:26.939Z,100049.34
2022-08-08T14:44:56.711Z,100048.06
2022-08-08T14:47:25.383Z,100041.94
2022-08-08T14:50:21.381Z,100045.06
2022-08-08T14:53:05.024Z,100042.19
2022-08-08T14:55:41.498Z,100041.66
2022-08-08T14:58:12.092Z,100049.38
2022-08-08T15:00:45.123Z,100044.50
2022-08-08T15:03:16.266Z,100045.69
2022-08-08T15:05:54.775Z,100047.72
2022-08-08T15:08:34.987Z,100054.09
2022-08-08T15:11:07.455Z,100052.34
2022-08-08T15:14:00.381Z,100053.03
2022-08-08T15:16:28.281Z,100050.78
2022-08-08T15:18:56.040Z,100051.59
2022-08-08T15:21:27.508Z,100045.09
2022-08-08T15:23:58.415Z,100054.22
2022-08-08T15:26:28.840Z,100046.84
2022-08-08T15:28:57.231Z,100056.00
2022-08-08T15:31:55.711Z,100053.16
2022-08-08T15:34:29.809Z,100053.97
2022-08-08T15:37:03.254Z,100063.72
2022-08-08T15:39:37.491Z,100057.31
2022-08-08T15:42:10.315Z,100061.31
2022-08-08T15:44:38.642Z,100059.88
2022-08-08T15:47:16.191Z,100054.22
2022-08-08T15:49:48.644Z,100060.97
2022-08-08T15:52:17.789Z,100052.94
2022-08-08T15:54:47.781Z,100058.84
2022-08-08T15:57:19.167Z,100053.72
2022-08-08T16:00:06.745Z,100063.69
2022-08-08T16:02:43.993Z,100053.63
2022-08-08T16:05:14.360Z,100046.81
2022-08-08T16:07:52.926Z,100061.88
2022-08-08T16:13:05.368Z,100058.56
2022-08-08T16:13:30.069Z,100050.72
2022-08-08T16:16:09.624Z,100051.38
2022-08-08T16:18:44.633Z,100039.81
2022-08-08T16:21:31.454Z,100041.81
2022-08-08T16:24:04.573Z,100035.75
2022-08-08T16:26:35.885Z,100042.53
2022-08-08T16:29:08.947Z,100023.94
2022-08-08T16:31:40.843Z,100025.84
2022-08-08T16:34:09.925Z,100043.63
2022-08-08T16:36:38.988Z,100049.78
2022-08-08T16:39:09.858Z,100048.84
2022-08-08T16:42:01.117Z,100051.16
2022-08-08T16:44:33.887Z,100048.84
2022-08-08T16:47:31.601Z,100047.53
2022-08-08T16:50:14.770Z,100044.56
2022-08-08T16:55:04.701Z,100047.66
2022-08-08T16:55:55.693Z,100054.97
2022-08-08T16:58:25.597Z,100051.91
2022-08-08T17:00:55.095Z,100059.38
2022-08-08T17:03:25.416Z,100059.22
2022-08-08T17:06:39.779Z,100064.19
2022-08-08T17:08:58.228Z,100065.62
2022-08-08T17:11:28.474Z,100058.47
2022-08-08T17:14:18.647Z,100076.91
2022-08-08T17:16:57.866Z,100076.88
2022-08-08T17:19:30.377Z,100066.25
2022-08-08T17:22:06.161Z,100074.19
2022-08-08T17:24:35.005Z,100086.34
2022-08-08T17:27:04.596Z,100093.91
2022-08-08T17:29:36.334Z,100095.44
2022-08-08T17:32:11.004Z,100092.97
2022-08-08T17:35:44.434Z,100096.62
2022-08-08T17:37:27.550Z,100088.84
2022-08-08T17:40:11.015Z,100093.84
2022-08-08T17:42:41.616Z,100100.94
2022-08-08T17:45:22.878Z,100090.97
2022-08-08T17:47:53.914Z,100088.63
2022-08-08T17:50:23.668Z,100089.16
2022-08-08T17:52:57.551Z,100083.12
2022-08-08T17:56:03.460Z,100086.84
2022-08-08T17:58:13.345Z,100077.66
2022-08-08T18:00:41.675Z,100078.94
2022-08-08T18:03:13.928Z,100091.22
2022-08-08T18:05:48.610Z,100079.62
2022-08-08T18:08:36.974Z,100079.97
2022-08-08T18:11:11.673Z,100088.37
2022-08-08T18:13:43.345Z,100101.97
2022-08-08T18:16:11.408Z,100096.81
2022-08-08T18:18:45.381Z,100107.25
2022-08-08T18:21:34.524Z,100107.06
2022-08-08T18:24:17.624Z,100105.16
2022-08-08T18:26:55.058Z,100111.72
2022-08-08T18:29:27.396Z,100106.06
2022-08-08T18:32:09.896Z,100113.03
2022-08-08T18:34:42.579Z,100121.59
2022-08-08T18:37:17.666Z,100121.44
2022-08-08T18:39:58.449Z,100120.62
2022-08-08T18:42:26.143Z,100119.47
2022-08-08T18:44:57.456Z,100116.25
2022-08-08T18:47:26.598Z,100123.56
2022-08-08T18:49:58.873Z,100120.78
2022-08-08T18:52:36.765Z,100127.31
2022-08-08T18:55:09.764Z,100125.59
2022-08-08T18:57:44.860Z,100118.94
2022-08-08T19:00:22.146Z,100116.06
2022-08-08T19:02:56.511Z,100116.25
2022-08-08T19:05:32.390Z,100128.53
2022-08-08T19:08:25.570Z,100128.56
2022-08-08T19:10:59.023Z,100137.34
2022-08-08T19:13:53.172Z,100134.63
2022-08-08T19:16:19.415Z,100137.31
2022-08-08T19:19:00.386Z,100145.00
2022-08-08T19:21:32.872Z,100146.28
2022-08-08T19:24:05.854Z,100144.34
2022-08-08T19:26:37.527Z,100141.87
2022-08-08T19:29:06.474Z,100143.34
2022-08-08T19:31:35.391Z,100146.72
2022-08-08T19:34:36.339Z,100127.94
2022-08-08T19:36:58.539Z,100144.38
2022-08-08T19:39:35.083Z,100146.16
2022-08-08T19:42:07.141Z,100140.25
2022-08-08T19:44:46.443Z,100150.62
2022-08-08T19:47:23.436Z,100147.53
2022-08-08T19:49:59.898Z,100145.91
2022-08-08T19:52:36.864Z,100150.19
2022-08-08T19:55:12.287Z,100154.19
2022-08-08T19:57:42.533Z,100146.88
2022-08-08T20:00:30.658Z,100140.88
2022-08-08T20:03:00.759Z,100149.81
2022-08-08T20:06:13.472Z,100142.97
2022-08-08T20:08:37.434Z,100146.50
2022-08-08T20:11:04.051Z,100147.12
2022-08-08T20:14:33.055Z,100147.34
2022-08-08T20:16:19.684Z,100139.00
2022-08-08T20:18:52.915Z,100135.44
2022-08-08T20:21:25.726Z,100132.09
2022-08-08T20:23:58.261Z,100130.22
2022-08-08T20:26:29.790Z,100144.34
2022-08-08T20:28:58.226Z,100137.94
2022-08-08T20:31:28.244Z,100135.03
2022-08-08T20:34:30.008Z,100126.88
2022-08-08T20:37:03.383Z,100128.56
2022-08-08T20:39:39.349Z,100136.84
2022-08-08T20:42:23.703Z,100129.81
2022-08-08T20:44:57.872Z,100129.38
2022-08-08T20:47:26.185Z,100124.81
2022-08-08T20:49:57.576Z,100128.97
2022-08-08T20:52:27.707Z,100122.50
2022-08-08T20:54:56.516Z,100119.81
2022-08-08T20:57:26.976Z,100123.56
2022-08-08T20:59:56.571Z,100115.37
2022-08-08T21:02:25.764Z,100118.75
2022-08-08T21:05:00.923Z,100126.44
2022-08-08T21:08:07.857Z,100126.66
2022-08-08T21:10:20.867Z,100122.72
2022-08-08T21:12:53.024Z,100118.13
2022-08-08T21:16:06.290Z,100118.37
2022-08-08T21:18:11.692Z,100123.13
2022-08-08T21:20:41.908Z,100128.59
2022-08-08T21:23:13.327Z,100130.25
2022-08-08T21:25:48.922Z,100131.28
2022-08-08T21:28:33.625Z,100129.38
2022-08-08T21:31:21.971Z,100139.19
2022-08-08T21:33:54.715Z,100141.09
2022-08-08T21:36:28.492Z,100139.38
2022-08-08T21:38:57.838Z,100148.94
2022-08-08T21:41:38.730Z,100143.50
2022-08-08T21:44:13.744Z,100145.97
2022-08-08T21:48:06.099Z,100149.75
2022-08-08T21:49:30.768Z,100157.09
2022-08-08T21:54:18.583Z,100152.75
2022-08-08T21:55:01.697Z,100153.16
2022-08-08T21:57:42.465Z,100151.91
2022-08-08T22:00:14.213Z,100153.38
2022-08-08T22:02:44.349Z,100152.94
2022-08-08T22:05:14.738Z,100154.38
2022-08-08T22:07:47.507Z,100160.66
2022-08-08T22:10:31.977Z,100163.63
2022-08-08T22:13:16.908Z,100167.38
2022-08-08T22:15:59.565Z,100160.25
2022-08-08T22:18:33.123Z,100169.84
2022-08-08T22:21:14.069Z,100166.94
2022-08-08T22:23:50.462Z,100164.44
2022-08-08T22:26:29.989Z,100161.94
2022-08-08T22:29:04.626Z,100156.97
2022-08-08T22:32:01.526Z,100160.06
2022-08-08T22:34:39.325Z,100157.69
2022-08-08T22:37:14.939Z,100150.41
2022-08-08T22:40:00.126Z,100151.03
2022-08-08T22:42:31.868Z,100141.25
2022-08-08T22:45:12.333Z,100137.31
2022-08-08T22:47:48.859Z,100140.03
2022-08-08T22:50:27.505Z,100138.75
2022-08-08T22:54:29.171Z,100148.63
2022-08-08T22:56:07.105Z,100142.16
2022-08-08T22:58:35.273Z,100141.69
2022-08-08T23:01:26.604Z,100151.66
2022-08-08T23:03:56.755Z,100153.97
2022-08-08T23:06:25.268Z,100151.91
2022-08-08T23:08:58.589Z,100146.06
2022-08-08T23:11:31.252Z,100146.06
2022-08-08T23:14:18.024Z,100147.69
2022-08-08T23:16:57.922Z,100147.97
2022-08-08T23:19:28.027Z,100153.16
2022-08-08T23:22:04.450Z,100147.31
2022-08-08T23:24:41.421Z,100148.50
2022-08-08T23:27:11.335Z,100144.00
2022-08-08T23:29:59.078Z,100153.16
2022-08-08T23:32:26.803Z,100153.97
2022-08-08T23:34:59.224Z,100149.19
2022-08-08T23:38:00.859Z,100158.50
2022-08-08T23:40:16.257Z,100161.41
2022-08-08T23:42:45.210Z,100163.66
2022-08-08T23:45:13.823Z,100167.28
2022-08-08T23:49:00.795Z,100175.63
2022-08-08T23:50:31.428Z,100176.47
2022-08-08T23:53:05.120Z,100185.44
2022-08-08T23:55:33.660Z,100184.53
2022-08-08T23:58:31.879Z,100183.09
